This is the latest recevied weather packets stored in our database for station/object VA2DG-13. If no packets are shown the sender has not sent any weather packets the latest 10 day(s).
| Time | Temp. | Humidity | Pressure | Rain* | Wind** | Luminosity | Snow |
|---|---|---|---|---|---|---|---|
| 1777365907 | 11.11° C | 64% | 1016.8 hPa | 0 mm | - | - | - |
| 1777364107 | 11.67° C | 62% | 1017 hPa | 0 mm | - | - | - |
| 1777362607 | 11.67° C | 59% | 1017.3 hPa | 0 mm | - | - | - |
| 1777361106 | 12.22° C | 57% | 1017.3 hPa | 0 mm | - | - | - |
| 1777357207 | 12.78° C | 52% | 1017.1 hPa | 0 mm | - | - | - |
| 1777356007 | 13.33° C | 50% | 1017.3 hPa | 0 mm | - | - | - |
| 1777353306 | 13.89° C | 47% | 1017.9 hPa | 0 mm | - | - | - |
| 1777350306 | 13.89° C | 47% | 1018.6 hPa | 0 mm | - | - | - |
| 1777349107 | 13.89° C | 47% | 1018.7 hPa | 0 mm | - | - | - |
| 1777345207 | 13.33° C | 47% | 1019.2 hPa | 0 mm | - | - | - |
| 1777344008 | 13.89° C | 43% | 1019.3 hPa | 0 mm | - | - | - |
| 1777341007 | 17.22° C | 37% | 1019.7 hPa | 0 mm | - | - | - |
| 1777340707 | 17.22° C | 36% | 1019.7 hPa | 0 mm | - | - | - |
| 1777339806 | 17.22° C | 36% | 1019.8 hPa | 0 mm | - | - | - |
| 1777336806 | 18.89° C | 33% | 1019.8 hPa | 0 mm | - | - | - |
| 1777329307 | 22.78° C | 27% | 1019.9 hPa | 0 mm | - | - | - |
| 1777327206 | 23.33° C | 27% | 1020.1 hPa | 0 mm | - | - | - |
| 1777325706 | 23.33° C | 27% | 1020.2 hPa | 0 mm | - | - | - |
| 1777323306 | 23.89° C | 25% | 1020.4 hPa | 0 mm | - | - | - |
| 1777323006 | 23.89° C | 25% | 1020.4 hPa | 0 mm | - | - | - |
| 1777322706 | 23.33° C | 27% | 1020.5 hPa | 0 mm | - | - | - |
| 1777322407 | 23.33° C | 27% | 1020.6 hPa | 0 mm | - | - | - |
| 1777321807 | 22.78° C | 26% | 1020.6 hPa | 0 mm | - | - | - |
| 1777314306 | 22.22° C | 27% | 1021.7 hPa | 0 mm | - | - | - |
| 1777313107 | 21.67° C | 28% | 1021.9 hPa | 0 mm | - | - | - |
* Rain latest hour (hover to see other rain measurements)
** Current wind speed in m/s (hover to see current wind gust speed)